Time;durP1;ratioP1;P1;durP2;ratioP2;P2;SDS_P1;SDS_P2;PMS_P1;PMS_P2;Temp;Humidity;BMP_temperature;BMP_pressure;BME280_temperature;BME280_humidity;BME280_pressure;Samples;Min_cycle;Max_cycle;Signal;HPM_P1;HPM_P2
2022/12/24 00:01:24;;;;;;;1.85;0.80;;;15.20;68.90;;;10.80;89.45;95270.41;5042376;28;20375;-58
2022/12/24 00:03:50;;;;;;;2.60;0.77;;;15.20;68.80;;;10.78;89.94;95280.56;5023370;28;20021;-57
2022/12/24 00:06:22;;;;;;;1.38;0.90;;;15.20;68.80;;;10.77;89.77;95283.47;5048889;28;20029;-56
2022/12/24 00:08:50;;;;;;;2.20;0.80;;;15.20;68.70;;;10.79;89.73;95278.69;5028680;28;20039;-59
2022/12/24 00:11:17;;;;;;;0.80;0.70;;;15.20;68.80;;;10.80;90.02;95285.59;5037384;28;20039;-58
2022/12/24 00:13:43;;;;;;;1.05;0.70;;;15.20;68.70;;;10.80;90.35;95296.25;5002410;28;20039;-54
2022/12/24 00:16:10;;;;;;;2.72;1.13;;;15.20;68.80;;;10.82;90.22;95289.59;5049904;28;20024;-58
2022/12/24 00:18:36;;;;;;;2.45;0.90;;;15.20;68.70;;;10.84;90.41;95299.97;5030652;28;20016;-58
2022/12/24 00:21:02;;;;;;;2.25;1.00;;;15.20;68.70;;;10.86;90.32;95295.97;5029492;28;20039;-58
2022/12/24 00:23:29;;;;;;;1.50;1.00;;;15.20;68.70;;;10.88;90.53;95298.38;5042483;28;20032;-56
2022/12/24 00:25:58;;;;;;;1.83;0.70;;;15.20;68.70;;;10.88;90.62;95295.69;5045441;28;20031;-55
2022/12/24 00:28:27;;;;;;;1.13;0.52;;;15.20;68.70;;;10.87;90.95;95310.06;5031908;28;20016;-58
2022/12/24 00:30:56;;;;;;;2.08;0.65;;;15.20;68.70;;;10.84;91.83;95315.94;5030356;28;20028;-55
2022/12/24 00:33:27;;;;;;;1.02;0.60;;;15.20;68.60;;;10.79;93.11;95327.44;5018508;28;20027;-58
2022/12/24 00:36:02;;;;;;;1.98;0.70;;;15.20;68.70;;;10.78;93.63;95322.34;5030733;28;20101;-54
2022/12/24 00:38:28;;;;;;;0.63;0.63;;;15.20;68.70;;;10.75;94.52;95321.06;5028510;28;20024;-57
2022/12/24 00:41:24;;;;;;;0.63;0.63;;;15.20;68.80;;;10.73;94.99;95325.06;5044655;28;20032;-59
2022/12/24 00:43:56;;;;;;;0.88;0.60;;;15.20;69.00;;;10.72;95.24;95328.78;5040720;28;20021;-57
2022/12/24 00:46:24;;;;;;;1.67;0.85;;;15.10;69.00;;;10.72;95.62;95336.75;5022638;28;20024;-55
2022/12/24 00:48:52;;;;;;;1.33;0.60;;;15.10;69.10;;;10.70;95.90;95325.59;5034019;28;20025;-56
2022/12/24 00:51:19;;;;;;;1.75;0.70;;;15.10;69.10;;;10.68;96.22;95328.53;5018563;28;20029;-59
2022/12/24 00:53:46;;;;;;;1.27;0.80;;;15.10;69.20;;;10.64;96.59;95324.81;5045844;28;20024;-57
2022/12/24 00:56:20;;;;;;;0.70;0.70;;;15.00;69.30;;;10.63;97.00;95328.56;5052999;28;20024;-56
2022/12/24 00:58:46;;;;;;;1.00;0.68;;;15.00;69.30;;;10.64;96.82;95332.81;5052758;28;20436;-55
2022/12/24 01:01:12;;;;;;;1.27;0.73;;;15.00;69.40;;;10.63;97.27;95339.22;5033713;28;20039;-57
2022/12/24 01:03:41;;;;;;;0.90;0.80;;;15.00;69.40;;;10.61;97.10;95328.00;5048556;28;20017;-55
2022/12/24 01:06:21;;;;;;;1.65;1.08;;;15.00;69.50;;;10.61;97.08;95322.69;5007118;28;20025;-52
2022/12/24 01:08:51;;;;;;;3.10;1.90;;;15.00;69.50;;;10.61;97.28;95328.81;5022952;28;20023;-55
2022/12/24 01:11:17;;;;;;;2.65;0.80;;;15.00;69.60;;;10.62;96.95;95334.94;5051270;28;20089;-59
2022/12/24 01:13:43;;;;;;;2.88;1.00;;;15.00;69.60;;;10.59;97.25;95341.63;5015190;28;20020;-58
2022/12/24 01:16:19;;;;;;;0.52;0.52;;;15.00;69.60;;;10.55;97.01;95351.19;5029508;28;20031;-57
2022/12/24 01:18:45;;;;;;;1.95;0.60;;;15.00;69.60;;;10.49;96.58;95362.13;5050518;28;20457;-58
2022/12/24 01:21:15;;;;;;;1.05;0.60;;;15.00;69.60;;;10.54;96.43;95354.13;5052008;28;21013;-58
2022/12/24 01:23:41;;;;;;;0.73;0.63;;;15.00;69.60;;;10.53;96.15;95352.53;5027759;28;20120;-57
2022/12/24 01:26:14;;;;;;;1.27;0.57;;;15.00;69.60;;;10.56;96.02;95371.44;5032284;28;20081;-58
2022/12/24 01:28:40;;;;;;;0.73;0.57;;;15.00;69.70;;;10.53;96.02;95372.00;5052639;28;20016;-57
2022/12/24 01:31:17;;;;;;;2.05;0.85;;;14.90;69.60;;;10.54;96.14;95368.25;5020944;28;20031;-58
2022/12/24 01:33:47;;;;;;;1.02;0.57;;;15.00;69.60;;;10.54;95.63;95364.78;5031420;28;20021;-54
2022/12/24 01:36:14;;;;;;;0.52;0.50;;;14.90;69.50;;;10.51;95.32;95365.34;5032485;28;20463;-57
2022/12/24 01:38:41;;;;;;;2.53;0.70;;;14.90;69.50;;;10.50;95.26;95371.69;5043844;28;20024;-60
2022/12/24 01:44:25;;;;;;;0.63;0.50;;;14.90;69.40;;;10.46;94.44;95381.31;5024630;28;20375;-60
2022/12/24 01:47:33;;;;;;;0.88;0.88;;;14.90;69.40;;;10.47;94.73;95374.94;5033037;28;20142;-57
2022/12/24 01:50:30;;;;;;;2.45;1.48;;;14.90;69.30;;;10.48;94.18;95368.53;5034333;28;20036;-60
2022/12/24 01:52:57;;;;;;;1.50;0.68;;;14.90;69.30;;;10.40;94.51;95380.50;5024357;28;20098;-60
2022/12/24 01:55:25;;;;;;;3.83;0.90;;;14.80;70.00;;;10.41;94.37;95382.91;5025283;28;20029;-56
2022/12/24 01:58:13;;;;;;;0.70;0.60;;;14.80;69.30;;;10.36;94.48;95364.28;5017444;28;20085;-58
2022/12/24 02:00:39;;;;;;;1.10;0.70;;;14.80;69.30;;;10.37;94.34;95381.88;5010040;28;20031;-58
2022/12/24 02:03:09;;;;;;;1.90;0.70;;;14.80;69.30;;;10.32;94.46;95381.84;5032360;28;20065;-58
2022/12/24 02:05:58;;;;;;;0.93;0.60;;;14.80;69.20;;;10.27;94.69;95383.72;5029362;28;20033;-58
2022/12/24 02:08:40;;;;;;;2.05;0.65;;;14.80;69.20;;;10.26;94.77;95390.91;5013188;28;20016;-60
2022/12/24 02:11:19;;;;;;;1.85;0.70;;;14.70;69.20;;;10.22;95.04;95399.69;5031467;28;20028;-59
2022/12/24 02:13:57;;;;;;;1.35;0.70;;;14.70;69.20;;;10.17;95.33;95397.78;5033907;28;20024;-58
2022/12/24 02:16:52;;;;;;;0.50;0.50;;;14.60;69.20;;;10.15;95.38;95397.25;5017491;28;20028;-59
2022/12/24 02:19:53;;;;;;;2.45;0.68;;;14.60;69.20;;;10.12;95.38;95408.44;5020263;28;20075;-60
2022/12/24 02:23:14;;;;;;;0.60;0.60;;;14.60;69.30;;;10.07;95.72;95409.25;5035064;28;20024;-60
2022/12/24 02:26:23;;;;;;;1.25;0.60;;;14.60;69.30;;;10.05;95.34;95403.38;5038376;28;20024;-60
2022/12/24 02:29:54;;;;;;;2.03;0.60;;;14.50;69.30;;;10.07;94.81;95403.13;5042439;28;20025;-58
2022/12/24 02:32:38;;;;;;;2.95;0.70;;;14.50;69.40;;;10.06;94.70;95414.81;5027074;28;20101;-59
2022/12/24 02:35:31;;;;;;;4.57;0.80;;;14.50;69.40;;;10.05;94.42;95424.66;5050029;28;20105;-58
2022/12/24 02:38:38;;;;;;;;;;;14.50;69.40;;;10.01;93.71;95428.13;5035532;28;20360;-61
2022/12/24 02:42:04;;;;;;;2.42;0.60;;;14.40;69.40;;;10.01;93.81;95441.44;5014829;28;20398;-57
2022/12/24 02:44:28;;;;;;;0.80;0.60;;;14.40;69.30;;;10.01;93.15;95436.91;5035562;28;20491;-59
2022/12/24 02:46:59;;;;;;;1.00;0.65;;;14.40;69.20;;;9.99;92.91;95448.88;5029896;28;20082;-59
2022/12/24 02:49:25;;;;;;;1.35;0.68;;;14.40;69.10;;;10.02;92.60;95451.00;5016716;28;20024;-58
2022/12/24 02:51:54;;;;;;;1.70;0.93;;;14.40;69.10;;;9.98;93.14;95436.63;5030234;28;20372;-59
2022/12/24 02:54:21;;;;;;;3.08;0.90;;;14.40;69.00;;;9.96;91.69;95436.88;5031090;28;20127;-59
2022/12/24 02:57:29;;;;;;;3.65;0.70;;;14.40;68.90;;;9.91;91.93;95440.34;5030886;28;20479;-60
2022/12/24 03:00:19;;;;;;;0.80;0.70;;;14.40;68.90;;;9.92;92.56;95449.94;5028324;28;20016;-60
2022/12/24 03:03:24;;;;;;;1.65;0.63;;;14.40;68.80;;;9.91;92.11;95451.00;5019690;28;20056;-59
2022/12/24 03:06:31;;;;;;;2.08;0.80;;;14.30;68.80;;;9.93;91.66;95446.22;5008901;28;20033;-58
2022/12/24 03:09:57;;;;;;;1.38;0.50;;;14.40;68.90;;;9.91;92.42;95451.00;5013159;28;20522;-60
2022/12/24 03:13:10;;;;;;;2.17;0.77;;;14.30;68.80;;;9.91;92.73;95447.53;4967264;28;20115;-59
2022/12/24 03:15:38;;;;;;;;;;;14.30;69.60;;;9.88;92.74;95446.19;5006113;28;20021;-60
2022/12/24 03:18:14;;;;;;;1.67;0.70;;;14.30;68.90;;;9.90;93.22;95440.59;5011890;28;20366;-57
2022/12/24 03:20:47;;;;;;;1.00;0.90;;;14.30;68.80;;;9.91;93.68;95439.56;5012945;28;20029;-57
2022/12/24 03:23:14;;;;;;;3.40;1.58;;;14.30;68.80;;;9.93;93.58;95440.91;5012280;28;20089;-60
2022/12/24 03:25:45;;;;;;;1.98;1.10;;;14.30;68.70;;;9.92;93.60;95433.97;5026209;28;20532;-59
2022/12/24 03:28:17;;;;;;;1.90;0.70;;;14.30;68.70;;;9.90;93.65;95437.94;5008787;28;20036;-59
2022/12/24 03:30:47;;;;;;;4.57;0.70;;;14.30;68.80;;;9.87;94.03;95435.81;5027371;28;20445;-56
2022/12/24 03:33:19;;;;;;;1.67;0.52;;;14.30;68.80;;;9.87;95.07;95444.63;5028936;28;20029;-57
2022/12/24 03:35:45;;;;;;;0.90;0.60;;;14.30;68.80;;;9.85;95.33;95462.69;5030678;28;20031;-59
2022/12/24 03:38:11;;;;;;;0.90;0.50;;;14.30;68.80;;;9.79;96.20;95457.63;5032521;28;20025;-58
2022/12/24 03:40:40;;;;;;;2.05;0.50;;;14.30;68.90;;;9.75;96.18;95443.25;5049985;28;20479;-59
2022/12/24 03:43:06;;;;;;;0.52;0.50;;;14.20;68.90;;;9.72;96.45;95456.00;5022928;28;20017;-58
2022/12/24 03:45:32;;;;;;;0.73;0.40;;;14.20;69.00;;;9.70;96.96;95458.13;5050008;28;20028;-60
2022/12/24 03:47:58;;;;;;;1.50;0.60;;;14.10;69.00;;;9.61;97.65;95458.88;5028779;28;20035;-59
2022/12/24 03:50:24;;;;;;;1.48;0.50;;;14.10;69.10;;;9.53;97.74;95446.09;5012301;28;20082;-60
2022/12/24 03:52:50;;;;;;;1.77;0.40;;;14.10;69.20;;;9.47;98.16;95446.09;5025207;28;20471;-59
2022/12/24 03:55:16;;;;;;;0.40;0.40;;;14.00;69.20;;;9.47;98.72;95442.63;5028500;28;20079;-60
2022/12/24 03:57:41;;;;;;;0.93;0.50;;;14.00;69.30;;;9.45;98.37;95450.06;5027625;28;20021;-60
2022/12/24 04:00:09;;;;;;;0.80;0.50;;;13.90;69.30;;;9.39;98.77;95449.22;5035527;28;20070;-60
2022/12/24 04:02:34;;;;;;;0.68;0.63;;;13.90;69.40;;;9.32;99.21;95442.56;5005969;28;20051;-60
2022/12/24 04:05:00;;;;;;;0.80;0.50;;;13.90;69.50;;;9.30;98.98;95445.47;5019728;28;20546;-60
2022/12/24 04:07:26;;;;;;;1.05;0.65;;;13.80;69.60;;;9.25;99.04;95442.81;5014078;28;20475;-60
2022/12/24 04:09:52;;;;;;;2.17;0.60;;;13.80;69.60;;;9.21;99.27;95447.03;5030796;28;20428;-60
2022/12/24 04:12:27;;;;;;;0.70;0.68;;;13.70;69.60;;;9.13;98.49;95434.25;5045501;28;20071;-60
2022/12/24 04:15:02;;;;;;;0.52;0.52;;;13.70;69.70;;;9.15;99.34;95445.41;5031077;28;20028;-58
2022/12/24 04:17:28;;;;;;;0.77;0.52;;;13.70;69.80;;;9.17;99.69;95457.38;5049033;28;20024;-60
2022/12/24 04:20:00;;;;;;;0.70;0.70;;;13.60;69.80;;;9.14;100.00;95457.09;5038386;28;20020;-58
2022/12/24 04:22:29;;;;;;;5.55;1.05;;;13.60;70.10;;;9.00;100.00;95470.06;5031887;28;20032;-60
2022/12/24 04:25:05;;;;;;;2.38;0.68;;;13.50;70.10;;;8.99;100.00;95469.25;4998336;28;20381;-60
2022/12/24 04:27:37;;;;;;;0.63;0.63;;;13.40;70.30;;;8.97;100.00;95473.22;5034017;28;20056;-58
2022/12/24 04:30:03;;;;;;;1.73;0.68;;;13.30;70.50;;;8.95;100.00;95475.31;5025113;28;20119;-58
2022/12/24 04:32:32;;;;;;;3.80;1.52;;;13.30;70.70;;;8.94;100.00;95474.53;5020052;28;20156;-58
2022/12/24 04:34:58;;;;;;;5.40;1.55;;;13.20;71.00;;;8.91;100.00;95468.94;5040445;28;20031;-52
2022/12/24 04:37:24;;;;;;;2.60;1.70;;;13.20;71.00;;;8.88;100.00;95477.41;5039574;28;20025;-56
2022/12/24 04:39:50;;;;;;;1.88;0.80;;;13.10;71.20;;;8.89;100.00;95489.63;5020152;28;20052;-57
2022/12/24 04:42:16;;;;;;;1.33;0.88;;;13.10;71.40;;;8.88;100.00;95494.13;5029974;28;20036;-57
2022/12/24 04:44:42;;;;;;;2.42;1.10;;;13.10;71.60;;;8.87;100.00;95495.22;5015962;28;20066;-54
2022/12/24 04:47:09;;;;;;;3.38;1.40;;;13.10;71.80;;;8.88;100.00;95493.34;5015588;28;20028;-60
2022/12/24 04:49:42;;;;;;;4.20;1.20;;;13.10;71.90;;;8.84;100.00;95479.78;5034675;28;20024;-60
2022/12/24 04:52:11;;;;;;;2.05;1.33;;;13.10;72.00;;;8.79;100.00;95482.38;5033842;28;20028;-58
2022/12/24 04:54:42;;;;;;;2.05;1.50;;;13.10;72.10;;;8.82;100.00;95489.06;5042637;28;20036;-59
2022/12/24 04:57:08;;;;;;;4.35;1.10;;;13.10;72.30;;;8.82;100.00;95486.41;5029690;28;20028;-60
2022/12/24 04:59:34;;;;;;;2.67;1.10;;;13.00;72.30;;;8.84;100.00;95495.72;5036086;28;20021;-60
2022/12/24 05:02:00;;;;;;;1.77;1.05;;;13.00;72.40;;;8.82;100.00;95494.38;5028949;23;20086;-55
2022/12/24 05:04:29;;;;;;;4.18;1.55;;;13.00;72.40;;;8.77;100.00;95493.28;4994329;28;20072;-58
2022/12/24 05:06:57;;;;;;;2.63;1.55;;;13.10;72.40;;;8.72;100.00;95489.78;4990011;28;20024;-55
2022/12/24 05:09:23;;;;;;;4.10;1.73;;;13.00;72.30;;;8.70;100.00;95503.31;5003180;28;20426;-58
2022/12/24 05:11:58;;;;;;;2.45;1.15;;;13.00;72.30;;;8.67;100.00;95505.66;5010365;28;20042;-55
2022/12/24 05:14:27;;;;;;;3.47;1.02;;;13.00;72.40;;;8.64;100.00;95520.25;5011910;28;20018;-56
2022/12/24 05:16:53;;;;;;;3.83;1.20;;;13.00;72.40;;;8.61;100.00;95525.25;5011181;28;20029;-57
2022/12/24 05:19:19;;;;;;;4.03;1.33;;;13.00;72.40;;;8.57;100.00;95525.78;4994117;28;20429;-59
2022/12/24 05:26:20;;;;;;;4.10;1.63;;;13.00;72.60;;;8.56;100.00;95528.69;4990491;28;20060;-54
2022/12/24 05:27:18;;;;;;;1.15;1.00;;;13.00;72.60;;;8.53;100.00;95521.22;5011836;28;20082;-54
2022/12/24 05:29:44;;;;;;;1.20;0.98;;;12.90;72.50;;;8.50;100.00;95537.66;4999040;28;20103;-57
2022/12/24 05:32:09;;;;;;;4.07;1.50;;;12.90;72.50;;;8.50;100.00;95543.78;4993858;28;20063;-55
2022/12/24 05:34:38;;;;;;;4.38;1.00;;;12.90;72.60;;;8.50;100.00;95542.97;4994213;28;20066;-59
2022/12/24 05:37:10;;;;;;;2.35;1.10;;;12.90;72.70;;;8.48;100.00;95540.56;5010056;28;20025;-55
2022/12/24 05:39:39;;;;;;;3.00;1.08;;;12.90;72.70;;;8.43;100.00;95537.88;5006592;28;20021;-53
2022/12/24 05:42:05;;;;;;;1.77;0.93;;;12.90;72.60;;;8.41;100.00;95532.00;5010108;28;20082;-53
2022/12/24 05:44:30;;;;;;;5.25;0.90;;;12.90;72.60;;;8.39;100.00;95534.09;5011864;28;20033;-57
2022/12/24 05:46:56;;;;;;;3.72;1.08;;;12.90;72.60;;;8.40;100.00;95537.56;5010374;28;20037;-55
2022/12/24 05:49:22;;;;;;;5.22;1.73;;;12.80;72.60;;;8.39;100.00;95536.75;5011446;28;20036;-53
2022/12/24 05:51:48;;;;;;;1.92;1.10;;;12.90;72.70;;;8.31;100.00;95537.19;4993423;28;20391;-53
2022/12/24 05:54:14;;;;;;;6.20;1.23;;;12.80;72.70;;;8.27;100.00;95536.91;4992980;28;20025;-55
2022/12/24 05:56:43;;;;;;;2.55;1.60;;;12.80;72.80;;;8.28;100.00;95546.47;4993838;28;20414;-56
2022/12/24 05:59:12;;;;;;;5.25;1.50;;;12.80;73.00;;;8.29;100.00;95545.41;4992660;28;20410;-57
2022/12/24 06:01:44;;;;;;;1.55;0.90;;;12.70;73.00;;;8.32;100.00;95552.06;5010490;28;20043;-57
2022/12/24 06:04:10;;;;;;;4.80;1.27;;;12.70;73.10;;;8.29;100.00;95556.00;5011422;28;20061;-57
2022/12/24 06:06:35;;;;;;;4.05;1.52;;;12.70;73.20;;;8.25;100.00;95557.56;4993023;28;20056;-54
2022/12/24 06:09:01;;;;;;;5.35;1.92;;;12.70;73.20;;;8.26;100.00;95550.41;4991811;28;20045;-57
2022/12/24 06:11:30;;;;;;;4.30;1.10;;;12.70;73.30;;;8.26;100.00;95545.91;4998574;28;20034;-53
2022/12/24 06:13:59;;;;;;;3.05;1.30;;;12.70;73.40;;;8.28;100.00;95551.75;5010518;28;20408;-55
2022/12/24 06:16:25;;;;;;;3.85;1.40;;;12.60;73.30;;;8.28;100.00;95565.03;4988708;28;20030;-56
2022/12/24 06:18:52;;;;;;;6.53;1.70;;;12.60;73.20;;;8.26;100.00;95561.03;5009535;28;20045;-56
2022/12/24 06:21:23;;;;;;;5.55;1.20;;;12.60;73.20;;;8.22;100.00;95557.28;5009889;28;20060;-54
2022/12/24 06:23:59;;;;;;;5.68;1.40;;;12.70;73.20;;;8.20;100.00;95551.41;4988899;28;20018;-53
2022/12/24 06:26:30;;;;;;;5.90;1.02;;;12.60;73.10;;;8.07;100.00;95556.06;5011003;28;20481;-55
2022/12/24 06:28:56;;;;;;;5.90;1.40;;;12.60;73.00;;;8.06;100.00;95556.31;5009645;28;20379;-58
2022/12/24 06:31:23;;;;;;;4.55;1.15;;;12.60;73.10;;;7.95;100.00;95568.66;4993197;28;20036;-53
2022/12/24 06:33:51;;;;;;;4.55;1.10;;;12.50;73.00;;;7.92;100.00;95577.09;4992641;28;20045;-55
2022/12/24 06:36:26;;;;;;;3.28;1.08;;;12.50;73.00;;;7.93;100.00;95578.72;4991914;28;20028;-55
2022/12/24 06:38:54;;;;;;;4.30;1.08;;;12.40;73.00;;;7.84;100.00;95583.66;5025770;28;20079;-53
2022/12/24 06:41:21;;;;;;;4.45;0.90;;;12.40;73.00;;;7.87;100.00;95585.00;5005875;28;20031;-53
2022/12/24 06:43:51;;;;;;;4.43;0.88;;;12.30;72.90;;;7.88;100.00;95589.25;4980057;28;20026;-54
2022/12/24 06:46:19;;;;;;;3.30;0.93;;;12.30;73.00;;;7.86;100.00;95586.84;4983190;28;20107;-54
2022/12/24 06:48:46;;;;;;;5.47;1.42;;;12.30;72.90;;;7.85;100.00;95587.09;4963846;28;20029;-55
2022/12/24 06:51:18;;;;;;;4.72;1.40;;;12.30;72.90;;;7.83;100.00;95594.50;4991955;28;20415;-57
2022/12/24 06:53:44;;;;;;;4.07;0.90;;;12.20;72.90;;;7.79;100.00;95596.03;4986537;28;20024;-55
2022/12/24 06:56:13;;;;;;;2.38;0.90;;;12.20;72.80;;;7.72;100.00;95585.63;5002073;28;20032;-56
2022/12/24 06:58:40;;;;;;;5.05;0.90;;;12.20;72.80;;;7.64;100.00;95591.34;4976308;28;20114;-56
2022/12/24 07:01:18;;;;;;;6.22;1.00;;;12.20;72.80;;;7.58;100.00;95594.97;4989684;28;20041;-57
2022/12/24 07:03:45;;;;;;;2.53;0.85;;;12.10;72.80;;;7.54;100.00;95597.31;4988893;28;20037;-55
2022/12/24 07:06:40;;;;;;;2.47;0.90;;;12.10;72.80;;;7.54;100.00;95607.09;5000362;28;20108;-53
2022/12/24 07:09:10;;;;;;;4.55;1.02;;;12.00;72.80;;;7.48;100.00;95608.88;5008798;28;20025;-53
2022/12/24 07:11:40;;;;;;;3.65;1.00;;;12.00;72.80;;;7.43;100.00;95611.47;4950510;28;20502;-53
2022/12/24 07:14:09;;;;;;;2.97;1.27;;;12.00;72.80;;;7.44;100.00;95618.38;5009181;28;20032;-54
2022/12/24 07:16:34;;;;;;;4.07;1.10;;;11.90;72.80;;;7.41;100.00;95611.72;5014370;28;20078;-57
2022/12/24 07:19:03;;;;;;;1.40;0.88;;;11.90;72.80;;;7.40;100.00;95625.22;4992266;28;20805;-54
2022/12/24 07:21:29;;;;;;;3.90;0.80;;;11.90;72.90;;;7.38;100.00;95628.09;5009179;28;20043;-57
2022/12/24 07:23:55;;;;;;;4.78;0.90;;;11.90;72.90;;;7.37;100.00;95623.84;5008359;28;20029;-52
2022/12/24 07:26:20;;;;;;;7.50;1.20;;;11.80;72.90;;;7.37;100.00;95634.44;4989759;28;20029;-54
2022/12/24 07:28:46;;;;;;;1.88;0.82;;;11.80;72.90;;;7.32;100.00;95646.81;4995505;28;20356;-54
2022/12/24 07:31:12;;;;;;;7.45;1.50;;;11.80;72.90;;;7.29;100.00;95648.09;5013914;28;20090;-54
2022/12/24 07:33:38;;;;;;;1.95;0.85;;;11.80;73.00;;;7.27;100.00;95639.59;4993407;28;20060;-57
2022/12/24 07:36:14;;;;;;;2.35;0.90;;;11.80;73.00;;;7.24;100.00;95642.75;5006704;28;20029;-54
2022/12/24 07:38:40;;;;;;;2.15;0.93;;;11.80;73.10;;;7.23;100.00;95648.25;4982213;28;20112;-57
2022/12/24 07:41:06;;;;;;;9.93;1.10;;;11.70;73.00;;;7.25;100.00;95648.84;4981357;28;20124;-58
2022/12/24 07:43:33;;;;;;;3.03;0.82;;;11.70;73.10;;;7.23;100.00;95650.91;4985711;28;20771;-57
2022/12/24 07:45:59;;;;;;;4.90;1.00;;;11.70;73.10;;;7.19;100.00;95654.03;4967265;28;20029;-57
2022/12/24 07:48:28;;;;;;;4.70;1.00;;;11.70;73.20;;;7.19;100.00;95642.66;5004947;28;20080;-54
2022/12/24 07:50:58;;;;;;;2.25;0.90;;;11.70;73.30;;;7.17;100.00;95650.81;4981806;28;20052;-56
2022/12/24 07:53:29;;;;;;;5.15;1.30;;;11.70;73.30;;;7.18;100.00;95651.66;5003913;28;20546;-54
2022/12/24 07:55:56;;;;;;;5.00;1.30;;;11.70;73.30;;;7.19;100.00;95650.59;4976369;28;20049;-57
2022/12/24 07:58:23;;;;;;;3.58;1.20;;;11.70;73.30;;;7.17;100.00;95644.72;4974401;28;20085;-56
2022/12/24 08:00:58;;;;;;;2.10;0.90;;;11.70;73.40;;;7.17;100.00;95650.03;5001066;28;20045;-53
2022/12/24 08:03:25;;;;;;;1.65;0.88;;;11.70;73.50;;;7.19;100.00;95650.59;5008619;28;20045;-56
2022/12/24 08:05:51;;;;;;;5.13;1.10;;;11.70;73.50;;;7.22;100.00;95651.97;4993916;28;20018;-56
2022/12/24 08:08:20;;;;;;;5.78;1.00;;;11.70;73.40;;;7.15;100.00;95647.63;4993928;28;20045;-56
2022/12/24 08:10:47;;;;;;;7.10;0.95;;;11.70;73.40;;;7.16;100.00;95661.66;4993805;28;20430;-56
2022/12/24 08:13:14;;;;;;;5.53;0.98;;;11.70;73.40;;;7.18;100.00;95670.19;4976141;28;20175;-55
2022/12/24 08:15:40;;;;;;;4.97;1.10;;;11.70;73.50;;;7.14;100.00;95677.78;5012725;28;20075;-58
2022/12/24 08:18:07;;;;;;;3.30;1.15;;;11.70;73.40;;;7.12;100.00;95682.53;4988545;28;20045;-58
2022/12/24 08:20:43;;;;;;;3.17;0.90;;;11.70;73.40;;;7.10;100.00;95678.53;4986448;28;20069;-55
2022/12/24 08:23:09;;;;;;;2.97;0.80;;;11.70;73.50;;;7.11;100.00;95686.25;5003640;28;20017;-58
2022/12/24 08:25:45;;;;;;;5.45;0.77;;;11.70;73.50;;;7.13;100.00;95688.66;4988032;28;20017;-58
2022/12/24 08:28:15;;;;;;;5.20;0.90;;;11.70;73.50;;;7.09;100.00;95679.59;5005431;28;20040;-54
2022/12/24 08:30:43;;;;;;;1.58;0.77;;;11.70;73.50;;;7.09;100.00;95684.88;4981767;28;20455;-59
2022/12/24 08:33:10;;;;;;;3.35;0.90;;;11.70;73.50;;;7.06;100.00;95675.56;5006967;28;20017;-57
2022/12/24 08:35:39;;;;;;;9.85;1.10;;;11.70;73.50;;;7.12;100.00;95676.44;4984001;28;20434;-56
2022/12/24 08:38:05;;;;;;;3.03;0.80;;;11.70;73.50;;;7.14;100.00;95674.34;4986400;28;20481;-55
2022/12/24 08:40:38;;;;;;;2.42;0.80;;;11.70;73.40;;;7.09;100.00;95674.28;5006545;28;20125;-58
2022/12/24 08:43:04;;;;;;;2.85;0.90;;;11.70;73.40;;;7.08;100.00;95678.78;5008486;28;20028;-57
2022/12/24 08:45:30;;;;;;;2.60;0.82;;;11.70;73.40;;;7.10;100.00;95681.97;4999374;28;20028;-53
2022/12/24 08:47:59;;;;;;;3.53;0.98;;;11.70;73.30;;;7.09;100.00;95684.88;5009695;28;20482;-56
2022/12/24 08:50:27;;;;;;;5.60;1.15;;;11.70;73.30;;;7.12;100.00;95676.44;4998293;28;20120;-53
2022/12/24 08:53:00;;;;;;;3.97;0.93;;;11.70;73.30;;;7.12;100.00;95682.53;4994766;28;20029;-53
2022/12/24 08:55:26;;;;;;;3.13;1.10;;;11.70;73.30;;;7.10;100.00;95679.31;5008902;28;20056;-54
2022/12/24 08:57:52;;;;;;;5.63;1.45;;;11.70;73.20;;;7.11;100.00;95688.91;4983515;28;20160;-55
2022/12/24 09:00:18;;;;;;;3.72;1.10;;;11.80;73.20;;;7.03;100.00;95691.13;4976516;28;20041;-58
2022/12/24 09:02:47;;;;;;;1.67;0.90;;;11.70;73.20;;;7.06;100.00;95701.25;5010601;28;20045;-56
2022/12/24 09:05:13;;;;;;;3.47;1.10;;;11.70;73.10;;;7.00;100.00;95705.66;4989864;28;20026;-55
2022/12/24 09:07:39;;;;;;;5.05;0.95;;;11.70;73.10;;;6.97;100.00;95710.63;4999835;28;20032;-57
2022/12/24 09:10:07;;;;;;;0.93;0.70;;;11.70;73.10;;;6.94;100.00;95710.03;5006944;28;20029;-56
2022/12/24 09:12:33;;;;;;;2.17;0.70;;;11.70;73.10;;;6.95;100.00;95714.28;5010860;28;20155;-56
2022/12/24 09:15:04;;;;;;;5.35;0.90;;;11.70;73.10;;;6.96;100.00;95720.41;4994903;28;20021;-56
2022/12/24 09:17:30;;;;;;;1.80;0.90;;;11.70;73.10;;;6.95;100.00;95721.44;4981265;28;20087;-57
2022/12/24 09:19:56;;;;;;;1.30;0.70;;;11.70;73.10;;;6.97;100.00;95718.56;4991165;28;20049;-55
2022/12/24 09:22:37;;;;;;;3.00;0.60;;;11.70;73.10;;;6.89;100.00;95714.44;4968222;28;20117;-59
2022/12/24 09:25:05;;;;;;;1.80;0.50;;;11.70;73.10;;;6.90;100.00;95721.38;4982294;28;20480;-54
2022/12/24 09:27:37;;;;;;;0.93;0.50;;;11.70;73.10;;;6.93;100.00;95723.53;4988283;28;20032;-54
2022/12/24 09:30:05;;;;;;;0.88;0.50;;;11.70;73.10;;;6.94;100.00;95711.91;5000513;28;20029;-59
2022/12/24 09:32:33;;;;;;;1.42;0.40;;;11.70;73.00;;;6.99;100.00;95713.81;5027860;28;20036;-57
2022/12/24 09:34:59;;;;;;;0.43;0.40;;;11.80;73.00;;;7.00;100.00;95721.53;4997105;28;20048;-57
2022/12/24 09:37:31;;;;;;;0.80;0.47;;;11.80;73.00;;;7.01;100.00;95714.41;5010749;28;20020;-58
2022/12/24 09:39:57;;;;;;;1.48;0.75;;;11.80;72.90;;;7.04;100.00;95711.28;5012543;28;20101;-54
2022/12/24 09:42:53;;;;;;;1.40;0.70;;;11.80;72.90;;;7.06;100.00;95710.00;5001222;28;20037;-57
2022/12/24 09:45:59;;;;;;;2.80;0.70;;;11.80;72.90;;;7.03;100.00;95718.41;5010349;28;20032;-58
2022/12/24 09:48:32;;;;;;;22.52;7.45;;;11.90;72.80;;;7.10;100.00;95721.72;4990551;28;20032;-53
2022/12/24 09:51:30;;;;;;;7.65;3.38;;;11.90;72.70;;;7.17;100.00;95721.56;4993801;28;20063;-57
2022/12/24 09:54:29;;;;;;;24.48;7.80;;;11.90;72.70;;;7.18;100.00;95739.88;4995428;28;20036;-56
2022/12/24 09:57:24;;;;;;;9.48;2.08;;;12.00;72.70;;;7.23;100.00;95749.75;4994081;28;20391;-55
2022/12/24 09:59:51;;;;;;;13.35;4.82;;;12.00;72.60;;;7.25;100.00;95739.72;4989198;28;20124;-55
2022/12/24 10:02:21;;;;;;;1.17;0.90;;;12.00;72.50;;;7.27;100.00;95747.41;4988907;28;20038;-55
2022/12/24 10:04:48;;;;;;;1.77;0.70;;;12.00;72.40;;;7.28;100.00;95741.88;4991514;28;20025;-54
2022/12/24 10:08:08;;;;;;;1.80;0.73;;;12.10;72.40;;;7.32;100.00;95732.41;4970749;28;20084;-59
2022/12/24 10:10:54;;;;;;;2.15;0.70;;;12.10;72.30;;;7.31;100.00;95740.63;4984821;28;20021;-57
2022/12/24 10:14:19;;;;;;;1.45;0.68;;;12.10;72.20;;;7.31;100.00;95743.25;4996932;28;20044;-57
2022/12/24 10:17:44;;;;;;;0.82;0.68;;;12.20;72.10;;;7.31;100.00;95740.63;4989618;28;20045;-56
2022/12/24 10:20:48;;;;;;;1.70;0.47;;;12.20;72.00;;;7.31;100.00;95743.25;4990329;28;20095;-54
2022/12/24 10:23:44;;;;;;;1.25;0.90;;;12.20;72.00;;;7.39;100.00;95740.19;4988846;28;20033;-57
2022/12/24 10:27:16;;;;;;;2.17;0.70;;;12.30;72.00;;;7.43;100.00;95733.41;4981215;28;20018;-58
2022/12/24 10:30:06;;;;;;;3.72;0.70;;;12.30;71.80;;;7.40;100.00;95734.66;4985933;28;20037;-57
2022/12/24 10:32:36;;;;;;;2.80;1.15;;;12.40;71.80;;;7.37;100.00;95743.09;4990402;28;20032;-59
2022/12/24 10:35:34;;;;;;;1.85;0.88;;;12.40;71.70;;;7.46;100.00;95754.13;4981259;28;20109;-58
2022/12/24 10:38:01;;;;;;;0.70;0.65;;;12.40;71.60;;;7.51;100.00;95764.00;4989092;28;20899;-59
2022/12/24 10:40:44;;;;;;;1.58;0.90;;;12.50;71.60;;;7.59;100.00;95763.59;4989466;28;20062;-58
2022/12/24 10:43:20;;;;;;;;;;;12.50;71.50;;;7.61;100.00;95759.63;4985787;28;20407;-55
2022/12/24 10:46:22;;;;;;;2.72;0.80;;;12.50;71.50;;;7.61;100.00;95758.84;4996228;28;19905;-52
2022/12/24 10:48:59;;;;;;;3.00;1.27;;;12.60;71.30;;;7.64;100.00;95761.81;4989726;28;20022;-54
2022/12/24 10:51:51;;;;;;;1.50;0.70;;;12.70;71.30;;;7.58;100.00;95756.66;4989196;28;20018;-58
2022/12/24 10:54:25;;;;;;;0.93;0.50;;;12.70;71.10;;;7.65;100.00;95757.34;4988905;28;20064;-58